West End, Texas
Current Conditions -  °F | °C
As of 12:55 AM on Monday 24 Nov 2014 (Local Time) from KARM Reporting Station
Clear Clear  
Wind Chill: 60°   Ceiling: Unl
Heat Index: 60°   Visibility: 10mi
Dew Point: 50°   Wind: 12mph
Humidity: 69%   Direction: 340°NNW
Pressure: 29.81"   Gusts: NA
Location:  29.1916°N, 96.2212°W
Report Text: KARM 240655Z AUTO 34010KT 10SM CLR 16/10 A2981 RMK AO2 T01570100
Loading
Personal Weather Stations






























Interactive Weather Map New forecast layout! Learn more

10-Day Weather Forecast

Advertisements
Track Severe Weather on mobile